Time;durP1;ratioP1;P1;durP2;ratioP2;P2;SDS_P1;SDS_P2;PMS_P1;PMS_P2;Temp;Humidity;BMP_temperature;BMP_pressure;BME280_temperature;BME280_humidity;BME280_pressure;Samples;Min_cycle;Max_cycle;Signal;HPM_P1;HPM_P2
2023/05/17 00:02:11;;;;;;;;;;;;;;;27.31;35.63;97655.50;5073609;28;19916;-84
2023/05/17 00:04:37;;;;;;;;;;;;;;;27.38;35.97;97661.66;5074419;28;19927;-84
2023/05/17 00:07:03;;;;;;;;;;;;;;;25.80;39.33;97650.88;5076200;28;19920;-86
2023/05/17 00:09:29;;;;;;;;;;;;;;;25.20;40.57;97650.91;5074581;28;19920;-85
2023/05/17 00:11:55;;;;;;;;;;;;;;;23.95;44.83;97641.06;5074857;28;19917;-85
2023/05/17 00:14:21;;;;;;;;;;;;;;;25.20;40.68;97648.09;5074142;28;20335;-85
2023/05/17 00:16:47;;;;;;;;;;;;;;;25.54;39.19;97646.56;5073249;28;20433;-85
2023/05/17 00:19:13;;;;;;;;;;;;;;;25.89;38.67;97642.50;5073772;28;19929;-85
2023/05/17 00:21:39;;;;;;;;;;;;;;;24.70;41.85;97645.28;5074845;28;19923;-85
2023/05/17 00:24:05;;;;;;;;;;;;;;;24.09;43.23;97656.72;5070574;28;19921;-86
2023/05/17 00:26:32;;;;;;;;;;;;;;;26.12;38.55;97650.53;5052126;28;20003;-84
2023/05/17 00:28:58;;;;;;;;;;;;;;;26.09;39.00;97642.97;5069692;28;19966;-85
2023/05/17 00:31:24;;;;;;;;;;;;;;;25.55;40.01;97640.50;5074174;28;19920;-85
2023/05/17 00:33:50;;;;;;;;;;;;;;;25.57;39.69;97635.22;5056034;28;19916;-84
2023/05/17 00:36:16;;;;;;;;;;;;;;;24.07;43.20;97650.00;5073384;28;19921;-86
2023/05/17 00:38:42;;;;;;;;;;;;;;;22.97;46.94;97649.25;5073939;28;19924;-85
2023/05/17 00:41:09;;;;;;;;;;;;;;;25.21;40.76;97638.41;5071118;28;19928;-85
2023/05/17 00:43:35;;;;;;;;;;;;;;;25.18;40.27;97642.13;5073503;28;19917;-85
2023/05/17 00:46:01;;;;;;;;;;;;;;;25.34;39.53;97636.34;5083701;28;19920;-86
2023/05/17 00:48:27;;;;;;;;;;;;;;;26.26;37.78;97640.75;5089003;28;19920;-85
2023/05/17 00:50:55;;;;;;;;;;;;;;;25.97;38.93;97652.25;5072425;28;19978;-85
2023/05/17 00:53:21;;;;;;;;;;;;;;;26.07;38.22;97646.22;5067310;28;19975;-85
2023/05/17 00:55:47;;;;;;;;;;;;;;;26.79;36.92;97662.06;5070936;28;19921;-83
2023/05/17 00:58:13;;;;;;;;;;;;;;;27.53;35.09;97673.13;5068187;28;19929;-83
2023/05/17 01:00:40;;;;;;;;;;;;;;;27.61;35.20;97670.81;5085326;28;19923;-83
2023/05/17 01:03:06;;;;;;;;;;;;;;;27.24;35.52;97664.25;5094164;28;20394;-83
2023/05/17 01:05:32;;;;;;;;;;;;;;;27.36;35.92;97663.34;5080494;28;20284;-82
2023/05/17 01:07:59;;;;;;;;;;;;;;;27.36;35.08;97660.53;5073750;28;20445;-83
2023/05/17 01:10:29;;;;;;;;;;;;;;;27.57;35.37;97659.66;5072880;28;20358;-83
2023/05/17 01:13:04;;;;;;;;;;;;;;;27.57;35.01;97661.69;5073740;28;20011;-83
2023/05/17 01:15:32;;;;;;;;;;;;;;;27.07;35.81;97662.97;5053933;28;19920;-82
2023/05/17 01:17:58;;;;;;;;;;;;;;;27.27;35.42;97663.31;5073173;28;19962;-82
2023/05/17 01:20:27;;;;;;;;;;;;;;;27.61;34.99;97671.56;5073473;28;19921;-83
2023/05/17 01:23:05;;;;;;;;;;;;;;;27.53;35.11;97670.31;5053627;28;20296;-83
2023/05/17 01:25:50;;;;;;;;;;;;;;;27.52;34.57;97679.22;5069974;28;20390;-83
2023/05/17 01:28:16;;;;;;;;;;;;;;;27.22;34.99;97672.38;5081722;28;20010;-82
2023/05/17 01:30:44;;;;;;;;;;;;;;;26.49;36.50;97674.09;5081040;28;19928;-83
2023/05/17 01:33:11;;;;;;;;;;;;;;;26.60;36.13;97660.38;5069448;28;19936;-83
2023/05/17 01:35:37;;;;;;;;;;;;;;;24.45;42.17;97657.28;5073011;28;20376;-83
2023/05/17 01:38:03;;;;;;;;;;;;;;;25.66;38.66;97659.81;5079098;28;19926;-84
2023/05/17 01:40:32;;;;;;;;;;;;;;;26.47;36.93;97652.00;5073080;28;19943;-84
2023/05/17 01:43:20;;;;;;;;;;;;;;;26.82;36.09;97649.84;5084286;28;19913;-84
2023/05/17 01:45:52;;;;;;;;;;;;;;;27.00;35.55;97655.56;5064850;28;19925;-84
2023/05/17 01:48:20;;;;;;;;;;;;;;;26.81;36.32;97670.03;5047668;28;19927;-84
2023/05/17 01:50:49;;;;;;;;;;;;;;;27.24;35.62;97676.31;5048103;28;20423;-84
2023/05/17 01:53:29;;;;;;;;;;;;;;;27.59;34.78;97687.38;5047181;28;20340;-85
2023/05/17 01:55:56;;;;;;;;;;;;;;;27.80;34.21;97683.66;5046756;28;20059;-85
2023/05/17 01:58:24;;;;;;;;;;;;;;;28.06;33.40;97687.78;5046424;28;19921;-85
2023/05/17 02:00:52;;;;;;;;;;;;;;;27.24;34.74;97690.41;5054533;28;19928;-85
2023/05/17 02:03:19;;;;;;;;;;;;;;;27.81;33.86;97696.53;5055805;28;20269;-85
2023/05/17 02:05:45;;;;;;;;;;;;;;;27.46;34.56;97695.19;5052682;28;19921;-85
2023/05/17 02:08:11;;;;;;;;;;;;;;;26.97;35.51;97695.94;5058789;28;20404;-85
2023/05/17 02:10:37;;;;;;;;;;;;;;;27.10;35.39;97699.44;5054309;28;19927;-85
2023/05/17 02:13:04;;;;;;;;;;;;;;;27.46;34.60;97701.63;5051312;28;19925;-85
2023/05/17 02:15:30;;;;;;;;;;;;;;;27.61;34.46;97705.41;5077364;28;19923;-85
2023/05/17 02:17:56;;;;;;;;;;;;;;;27.74;34.06;97702.47;5062175;28;19916;-85
2023/05/17 02:20:22;;;;;;;;;;;;;;;28.00;34.04;97704.56;5054840;28;19975;-85
2023/05/17 02:22:48;;;;;;;;;;;;;;;28.18;33.31;97708.63;5049236;28;19925;-86
2023/05/17 02:25:15;;;;;;;;;;;;;;;28.06;33.75;97694.22;5050053;28;19927;-86
2023/05/17 02:27:41;;;;;;;;;;;;;;;27.96;32.93;97694.63;5055561;28;20266;-86
2023/05/17 02:30:07;;;;;;;;;;;;;;;27.44;34.89;97698.50;5045965;28;20008;-86
2023/05/17 02:32:33;;;;;;;;;;;;;;;27.31;34.81;97695.75;5050718;28;19921;-87
2023/05/17 02:34:59;;;;;;;;;;;;;;;27.40;34.44;97695.00;5056126;28;20451;-87
2023/05/17 02:37:25;;;;;;;;;;;;;;;26.95;35.46;97695.63;5056736;28;19925;-87
2023/05/17 02:39:51;;;;;;;;;;;;;;;26.89;35.65;97679.78;5055524;28;20015;-87
2023/05/17 02:42:17;;;;;;;;;;;;;;;27.86;33.45;97682.59;5070249;28;19924;-87
2023/05/17 02:44:43;;;;;;;;;;;;;;;26.77;35.46;97692.69;5061975;28;19920;-88
2023/05/17 02:47:09;;;;;;;;;;;;;;;27.41;34.70;97688.13;5065866;28;19960;-87
2023/05/17 02:49:35;;;;;;;;;;;;;;;26.16;37.45;97684.97;5076829;28;19916;-88
2023/05/17 02:52:01;;;;;;;;;;;;;;;26.84;35.60;97683.97;5076339;28;20378;-88
2023/05/17 02:54:27;;;;;;;;;;;;;;;26.35;36.33;97677.44;5087056;28;19920;-87
2023/05/17 02:56:53;;;;;;;;;;;;;;;26.42;36.57;97677.94;5059833;28;19971;-87
2023/05/17 02:59:19;;;;;;;;;;;;;;;26.08;37.43;97675.97;5063590;28;19917;-87
2023/05/17 03:01:45;;;;;;;;;;;;;;;25.29;39.65;97673.47;5090808;28;20390;-88
2023/05/17 03:04:11;;;;;;;;;;;;;;;24.27;40.83;97682.25;5086026;28;19936;-88
2023/05/17 03:06:37;;;;;;;;;;;;;;;25.48;38.22;97682.13;5095020;28;19924;-87
2023/05/17 03:09:03;;;;;;;;;;;;;;;25.83;37.20;97680.91;5081107;28;19925;-88
2023/05/17 03:11:30;;;;;;;;;;;;;;;25.68;38.85;97686.22;5076137;28;19961;-87
2023/05/17 03:13:56;;;;;;;;;;;;;;;25.14;39.20;97685.63;5076511;28;19916;-88
2023/05/17 03:16:22;;;;;;;;;;;;;;;24.83;39.42;97687.44;5089121;28;19931;-88
2023/05/17 03:18:48;;;;;;;;;;;;;;;24.07;41.71;97690.03;5085649;28;19928;-87
2023/05/17 03:21:14;;;;;;;;;;;;;;;23.79;43.03;97680.38;5086102;28;20376;-86
2023/05/17 03:23:40;;;;;;;;;;;;;;;23.20;43.61;97694.69;5078384;28;19927;-88
2023/05/17 03:26:06;;;;;;;;;;;;;;;23.44;43.02;97698.13;5070890;28;19917;-87
2023/05/17 03:28:32;;;;;;;;;;;;;;;24.86;39.89;97698.53;5070120;28;20404;-87
2023/05/17 03:30:58;;;;;;;;;;;;;;;24.46;40.83;97694.53;5085666;28;20383;-86
2023/05/17 03:33:24;;;;;;;;;;;;;;;23.54;43.57;97699.88;5072099;28;20414;-87
2023/05/17 03:35:50;;;;;;;;;;;;;;;22.99;44.76;97705.59;5073393;28;20273;-88
2023/05/17 03:38:16;;;;;;;;;;;;;;;24.66;39.67;97695.13;5056690;28;19927;-87
2023/05/17 03:40:42;;;;;;;;;;;;;;;23.92;41.29;97712.06;5069660;28;20402;-87
2023/05/17 03:43:08;;;;;;;;;;;;;;;23.76;42.51;97717.69;5071537;28;19935;-86
2023/05/17 03:45:34;;;;;;;;;;;;;;;24.09;41.70;97729.66;5054304;28;19999;-87
2023/05/17 03:48:00;;;;;;;;;;;;;;;25.84;37.21;97733.88;5068791;28;19983;-87
2023/05/17 03:50:27;;;;;;;;;;;;;;;25.65;36.97;97732.13;5069664;28;19933;-86
2023/05/17 03:52:53;;;;;;;;;;;;;;;25.67;36.71;97745.75;5072577;28;19912;-87
2023/05/17 03:55:19;;;;;;;;;;;;;;;25.45;38.41;97753.28;5056430;28;20012;-86
2023/05/17 03:57:45;;;;;;;;;;;;;;;24.09;40.37;97754.09;5060226;28;19920;-86
2023/05/17 04:00:11;;;;;;;;;;;;;;;25.62;37.65;97763.19;5071323;28;19920;-86
2023/05/17 04:02:37;;;;;;;;;;;;;;;26.61;34.76;97766.13;5072210;28;20395;-86
2023/05/17 04:05:04;;;;;;;;;;;;;;;26.45;35.45;97771.94;5077197;28;20007;-86
2023/05/17 04:07:30;;;;;;;;;;;;;;;25.90;36.40;97779.09;5070952;28;19924;-86
2023/05/17 04:10:01;;;;;;;;;;;;;;;23.89;41.72;97765.44;5067687;28;20015;-88
2023/05/17 04:12:27;;;;;;;;;;;;;;;23.44;41.93;97775.78;5079595;28;19921;-86
2023/05/17 04:14:53;;;;;;;;;;;;;;;22.32;45.30;97772.19;5070356;28;19925;-87
2023/05/17 04:17:19;;;;;;;;;;;;;;;23.96;41.09;97770.84;5072546;28;19927;-89
2023/05/17 04:19:45;;;;;;;;;;;;;;;24.43;39.36;97769.19;5089300;28;19916;-92
2023/05/17 04:22:11;;;;;;;;;;;;;;;25.86;37.07;97770.78;5075663;28;19927;-95
2023/05/17 04:24:37;;;;;;;;;;;;;;;26.28;35.78;97771.34;5065614;28;19991;-91
2023/05/17 04:27:04;;;;;;;;;;;;;;;26.53;35.51;97776.88;5067672;28;19924;-92
2023/05/17 04:29:30;;;;;;;;;;;;;;;26.39;34.90;97773.78;5068651;28;20376;-94
2023/05/17 04:31:56;;;;;;;;;;;;;;;26.65;34.89;97783.69;5069051;28;19920;-90
2023/05/17 04:34:23;;;;;;;;;;;;;;;26.99;34.32;97788.47;5076945;28;19923;-89
2023/05/17 04:36:49;;;;;;;;;;;;;;;27.17;33.70;97794.19;5053681;28;20073;-92
2023/05/17 04:39:16;;;;;;;;;;;;;;;26.91;34.64;97790.75;5083014;28;19920;-94
2023/05/17 04:41:42;;;;;;;;;;;;;;;26.82;34.76;97785.06;5067742;28;19917;-90
2023/05/17 04:44:08;;;;;;;;;;;;;;;27.26;34.12;97791.41;5073443;28;19995;-92
2023/05/17 04:46:35;;;;;;;;;;;;;;;27.22;33.77;97782.31;5077609;28;19920;-91
2023/05/17 04:49:02;;;;;;;;;;;;;;;27.49;33.26;97776.84;5079520;28;19920;-96
2023/05/17 04:51:28;;;;;;;;;;;;;;;27.53;33.65;97780.31;5065760;28;19964;-89
2023/05/17 04:53:54;;;;;;;;;;;;;;;27.36;33.58;97784.59;5058342;28;20039;-91
2023/05/17 04:56:21;;;;;;;;;;;;;;;27.73;33.04;97797.59;5072562;28;19952;-90
2023/05/17 04:58:47;;;;;;;;;;;;;;;27.85;32.74;97795.91;5068299;28;20392;-90
2023/05/17 05:01:13;;;;;;;;;;;;;;;27.53;33.10;97793.63;5076019;28;19981;-90
2023/05/17 05:03:39;;;;;;;;;;;;;;;27.60;33.05;97794.13;5070357;28;19920;-89
2023/05/17 05:06:05;;;;;;;;;;;;;;;26.32;35.57;97799.38;5085607;28;19924;-88
2023/05/17 05:08:32;;;;;;;;;;;;;;;26.86;34.51;97801.84;5074260;28;20380;-88
2023/05/17 05:10:58;;;;;;;;;;;;;;;27.03;34.10;97801.16;5093109;28;19920;-87
2023/05/17 05:13:24;;;;;;;;;;;;;;;26.96;34.49;97800.66;5083727;28;19924;-87
2023/05/17 05:15:50;;;;;;;;;;;;;;;27.14;33.76;97806.41;5067428;28;19920;-87
2023/05/17 05:18:16;;;;;;;;;;;;;;;27.34;33.86;97801.97;5081586;28;20420;-86
2023/05/17 05:20:42;;;;;;;;;;;;;;;27.53;32.96;97808.50;5091142;28;19921;-86
2023/05/17 05:23:08;;;;;;;;;;;;;;;27.25;34.19;97809.59;5085656;28;20014;-86
2023/05/17 05:25:36;;;;;;;;;;;;;;;27.08;34.02;97797.75;5072453;28;19967;-85
2023/05/17 05:28:02;;;;;;;;;;;;;;;27.29;33.73;97796.13;5072866;28;20290;-85
2023/05/17 05:30:28;;;;;;;;;;;;;;;27.42;34.15;97808.16;5086995;28;19920;-85
2023/05/17 05:32:54;;;;;;;;;;;;;;;27.31;33.98;97816.19;5083074;28;19932;-85
2023/05/17 05:35:27;;;;;;;;;;;;;;;27.27;33.35;97809.91;5088690;28;19943;-85
2023/05/17 05:37:54;;;;;;;;;;;;;;;27.23;34.27;97829.81;5085616;28;19928;-85
2023/05/17 05:40:20;;;;;;;;;;;;;;;27.23;33.84;97831.81;5074796;28;19920;-86
2023/05/17 05:42:46;;;;;;;;;;;;;;;26.67;35.13;97831.91;5074259;28;19923;-88
2023/05/17 05:45:12;;;;;;;;;;;;;;;26.88;34.43;97833.16;5093679;28;19923;-87
2023/05/17 05:47:38;;;;;;;;;;;;;;;27.09;35.01;97838.81;5064553;28;19921;-86
2023/05/17 05:50:05;;;;;;;;;;;;;;;26.19;36.50;97852.88;5073637;28;19927;-86
2023/05/17 05:52:31;;;;;;;;;;;;;;;26.96;35.08;97851.38;5081228;28;19955;-86
2023/05/17 05:54:57;;;;;;;;;;;;;;;27.78;32.57;97855.44;5079732;28;19929;-87
2023/05/17 05:57:23;;;;;;;;;;;;;;;27.76;32.87;97863.59;5070962;28;19955;-86
2023/05/17 05:59:49;;;;;;;;;;;;;;;27.74;32.98;97861.25;5073548;28;20283;-86
2023/05/17 06:02:16;;;;;;;;;;;;;;;27.73;33.27;97854.03;5083756;28;19920;-87
2023/05/17 06:04:42;;;;;;;;;;;;;;;27.43;33.81;97857.63;5087408;28;19973;-86
2023/05/17 06:07:08;;;;;;;;;;;;;;;27.29;33.68;97860.97;5077334;28;19925;-86
2023/05/17 06:09:34;;;;;;;;;;;;;;;26.61;35.67;97864.69;5081653;28;20376;-86
2023/05/17 06:12:00;;;;;;;;;;;;;;;26.34;36.35;97865.25;5084890;28;20007;-86
2023/05/17 06:14:26;;;;;;;;;;;;;;;26.68;35.59;97859.59;5082291;28;19920;-86
2023/05/17 06:16:52;;;;;;;;;;;;;;;27.14;34.31;97863.53;5068764;28;19921;-86
2023/05/17 06:19:19;;;;;;;;;;;;;;;27.62;33.24;97866.97;5086356;28;20022;-87
2023/05/17 06:21:45;;;;;;;;;;;;;;;26.73;34.97;97883.56;5080360;28;19920;-86
2023/05/17 06:24:11;;;;;;;;;;;;;;;27.07;34.42;97885.59;5086059;28;19920;-87
2023/05/17 06:26:37;;;;;;;;;;;;;;;27.64;33.43;97879.38;5080827;28;20383;-87
2023/05/17 06:29:03;;;;;;;;;;;;;;;27.92;33.05;97891.56;5071870;28;19924;-86
2023/05/17 06:31:29;;;;;;;;;;;;;;;28.06;32.48;97894.63;5072589;28;19916;-86
2023/05/17 06:33:55;;;;;;;;;;;;;;;28.04;32.49;97896.34;5076231;28;19942;-86
2023/05/17 06:36:21;;;;;;;;;;;;;;;28.32;32.53;97903.63;5077237;28;19921;-86
2023/05/17 06:38:47;;;;;;;;;;;;;;;28.51;32.21;97891.13;5072136;28;19931;-86
2023/05/17 06:41:13;;;;;;;;;;;;;;;28.76;31.56;97904.19;5071085;28;19943;-86
2023/05/17 06:43:39;;;;;;;;;;;;;;;28.61;31.75;97891.94;5074154;28;20283;-86
2023/05/17 06:46:05;;;;;;;;;;;;;;;28.46;31.98;97891.72;5076271;28;19924;-86
2023/05/17 06:48:31;;;;;;;;;;;;;;;28.31;32.54;97887.94;5074478;28;19916;-87
2023/05/17 06:50:57;;;;;;;;;;;;;;;28.39;32.46;97889.22;5039442;28;19924;-87
2023/05/17 06:53:23;;;;;;;;;;;;;;;28.40;32.46;97901.31;5039041;28;19917;-87
2023/05/17 06:55:49;;;;;;;;;;;;;;;28.41;32.36;97900.03;5056153;28;19923;-87
2023/05/17 06:58:15;;;;;;;;;;;;;;;28.23;32.79;97905.66;5055922;28;19921;-88
2023/05/17 07:00:41;;;;;;;;;;;;;;;28.31;32.76;97910.50;5055701;28;19948;-88
2023/05/17 07:03:07;;;;;;;;;;;;;;;28.68;32.45;97911.41;5055078;28;19970;-87
2023/05/17 07:05:34;;;;;;;;;;;;;;;29.05;31.89;97910.16;5055527;28;19936;-88
2023/05/17 07:08:00;;;;;;;;;;;;;;;29.07;31.64;97918.16;5055552;28;19935;-88
2023/05/17 07:10:26;;;;;;;;;;;;;;;28.86;31.27;97919.09;5064423;28;20376;-88
2023/05/17 07:12:52;;;;;;;;;;;;;;;28.53;32.12;97916.06;5053629;28;19946;-88
2023/05/17 07:15:18;;;;;;;;;;;;;;;28.64;32.63;97913.59;5055524;28;20542;-88
2023/05/17 07:17:44;;;;;;;;;;;;;;;28.68;32.06;97931.19;5055774;28;19964;-88
2023/05/17 07:20:10;;;;;;;;;;;;;;;28.32;32.36;97928.25;5052596;28;19960;-88
2023/05/17 07:22:36;;;;;;;;;;;;;;;27.94;33.17;97935.00;5054348;28;19948;-89
2023/05/17 07:25:03;;;;;;;;;;;;;;;28.18;32.88;97940.13;5055484;28;19943;-89
2023/05/17 07:27:29;;;;;;;;;;;;;;;28.34;32.46;97945.50;5055899;28;19917;-91
2023/05/17 07:29:55;;;;;;;;;;;;;;;28.41;32.74;97937.53;5054713;28;19928;-92
2023/05/17 07:32:21;;;;;;;;;;;;;;;28.41;32.32;97940.38;5056154;28;20281;-93
2023/05/17 07:34:47;;;;;;;;;;;;;;;28.28;32.24;97941.75;5055352;28;19917;-94
2023/05/17 07:37:13;;;;;;;;;;;;;;;28.03;32.87;97946.34;5061153;28;19924;-95
2023/05/17 07:39:39;;;;;;;;;;;;;;;28.00;33.49;97947.28;5056828;28;20327;-95
2023/05/17 07:42:05;;;;;;;;;;;;;;;28.32;32.70;97948.81;5054569;28;19924;-93
2023/05/17 07:44:31;;;;;;;;;;;;;;;28.40;33.07;97947.25;5057354;28;20297;-91
2023/05/17 07:46:57;;;;;;;;;;;;;;;28.49;32.32;97952.94;5052362;28;20020;-92
2023/05/17 07:49:23;;;;;;;;;;;;;;;28.30;32.99;97956.19;5074355;28;20023;-91
2023/05/17 07:51:49;;;;;;;;;;;;;;;28.05;33.39;97957.97;5075457;28;19917;-92
2023/05/17 07:54:23;;;;;;;;;;;;;;;28.10;33.85;97961.44;5074396;28;19970;-92
2023/05/17 07:56:51;;;;;;;;;;;;;;;28.55;32.16;97956.72;5075252;28;20399;-92
2023/05/17 07:59:18;;;;;;;;;;;;;;;28.18;33.13;97963.50;5075548;28;20340;-92
2023/05/17 08:01:44;;;;;;;;;;;;;;;28.16;32.72;97966.00;5057315;28;20015;-92
2023/05/17 08:04:10;;;;;;;;;;;;;;;26.50;37.54;97965.66;5075779;28;19917;-92
2023/05/17 08:06:36;;;;;;;;;;;;;;;25.85;38.61;97971.75;5074257;28;20346;-92
2023/05/17 08:09:03;;;;;;;;;;;;;;;26.65;36.41;97969.56;5074715;28;19951;-92
2023/05/17 08:11:30;;;;;;;;;;;;;;;27.00;35.04;97967.59;5075284;28;19979;-91
2023/05/17 08:13:56;;;;;;;;;;;;;;;26.59;36.72;97972.16;5075125;28;19917;-91
2023/05/17 08:16:22;;;;;;;;;;;;;;;27.15;35.30;97971.44;5074841;28;20296;-91
2023/05/17 08:18:48;;;;;;;;;;;;;;;27.73;34.63;97975.34;5075163;28;19917;-90
2023/05/17 08:21:14;;;;;;;;;;;;;;;28.17;33.77;97978.88;5065146;28;19920;-90
2023/05/17 08:23:40;;;;;;;;;;;;;;;28.41;33.21;97974.25;5055585;28;19917;-89
2023/05/17 08:26:06;;;;;;;;;;;;;;;27.62;34.52;97976.97;5054703;28;19924;-90
2023/05/17 08:28:32;;;;;;;;;;;;;;;27.96;33.80;97971.22;5055067;28;19920;-90
2023/05/17 08:30:58;;;;;;;;;;;;;;;28.00;33.41;97978.34;5060362;28;19917;-89
2023/05/17 08:33:25;;;;;;;;;;;;;;;27.28;36.41;97986.28;5074800;28;20065;-89
2023/05/17 08:35:53;;;;;;;;;;;;;;;27.28;35.05;97995.50;5062241;28;19920;-90
2023/05/17 08:38:20;;;;;;;;;;;;;;;27.29;34.26;97996.31;5054718;28;20005;-91
2023/05/17 08:40:53;;;;;;;;;;;;;;;27.76;33.72;98002.63;5073717;28;19924;-92
2023/05/17 08:43:21;;;;;;;;;;;;;;;27.87;34.24;97994.53;5074868;28;19917;-92
2023/05/17 08:45:48;;;;;;;;;;;;;;;27.20;34.01;98001.88;5075035;28;19917;-93
2023/05/17 08:48:16;;;;;;;;;;;;;;;27.62;33.91;98008.00;5056756;28;19967;-95
2023/05/17 08:50:43;;;;;;;;;;;;;;;27.67;32.96;97996.94;5054738;28;19917;-94
2023/05/17 08:53:10;;;;;;;;;;;;;;;27.29;34.66;98007.59;5054339;28;19917;-93
2023/05/17 08:55:37;;;;;;;;;;;;;;;26.22;37.00;98015.22;5073535;28;20395;-94
2023/05/17 08:58:04;;;;;;;;;;;;;;;26.16;37.36;98011.41;5074503;28;19916;-93
2023/05/17 09:00:32;;;;;;;;;;;;;;;23.48;45.32;98026.66;5074707;28;19939;-94
2023/05/17 09:02:59;;;;;;;;;;;;;;;25.25;40.09;98029.69;5074977;28;19940;-95
2023/05/17 09:05:26;;;;;;;;;;;;;;;25.45;38.69;98035.19;5065443;28;20011;-95
2023/05/17 09:07:52;;;;;;;;;;;;;;;25.95;37.09;98028.91;5055138;28;19928;-92
2023/05/17 09:10:19;;;;;;;;;;;;;;;26.47;36.86;98031.31;5036827;28;19924;-95
2023/05/17 09:12:45;;;;;;;;;;;;;;;25.63;38.27;98037.47;5054654;28;20373;-96
2023/05/17 09:15:12;;;;;;;;;;;;;;;26.52;36.39;98045.63;5048533;28;20007;-93
2023/05/17 09:17:40;;;;;;;;;;;;;;;26.03;38.12;98038.69;5053199;28;20014;-95
2023/05/17 09:20:07;;;;;;;;;;;;;;;26.69;35.03;98044.25;5054183;28;20016;-94
2023/05/17 09:22:34;;;;;;;;;;;;;;;25.45;38.40;98049.25;5051271;28;20034;-93
2023/05/17 09:25:03;;;;;;;;;;;;;;;25.79;37.41;98048.69;5034799;28;19924;-93
2023/05/17 09:27:32;;;;;;;;;;;;;;;25.39;38.82;98048.97;5053521;28;19955;-93
2023/05/17 09:29:58;;;;;;;;;;;;;;;25.01;40.42;98062.06;5053863;28;19924;-92
2023/05/17 09:32:24;;;;;;;;;;;;;;;25.35;37.95;98062.34;5053625;28;20334;-94
2023/05/17 09:34:50;;;;;;;;;;;;;;;25.14;39.39;98059.31;5053981;28;19963;-88
2023/05/17 09:37:17;;;;;;;;;;;;;;;24.71;39.48;98070.81;5053278;28;20280;-90
2023/05/17 09:39:44;;;;;;;;;;;;;;;24.64;39.67;98071.00;5053265;28;20011;-91
2023/05/17 09:42:13;;;;;;;;;;;;;;;25.03;38.00;98064.41;5056609;28;20278;-91
2023/05/17 09:44:56;;;;;;;;;;;;;;;23.93;42.08;98085.81;5054382;28;20373;-93
2023/05/17 09:47:25;;;;;;;;;;;;;;;22.66;46.38;98090.97;5046071;28;20225;-91
2023/05/17 09:49:51;;;;;;;;;;;;;;;23.84;42.05;98094.00;5055342;28;19928;-91
2023/05/17 09:52:19;;;;;;;;;;;;;;;24.97;39.18;98099.91;5055787;28;19916;-93
2023/05/17 09:54:52;;;;;;;;;;;;;;;24.87;39.27;98106.56;5073664;28;19920;-90
2023/05/17 09:57:18;;;;;;;;;;;;;;;24.98;39.19;98098.66;5073595;28;20000;-92
2023/05/17 09:59:45;;;;;;;;;;;;;;;24.54;40.25;98100.09;5057251;28;19931;-94
2023/05/17 10:02:16;;;;;;;;;;;;;;;25.77;37.29;98107.38;5073083;28;19917;-92
2023/05/17 10:04:43;;;;;;;;;;;;;;;26.18;36.62;98113.06;5073604;28;19921;-92
2023/05/17 10:07:09;;;;;;;;;;;;;;;26.24;35.80;98099.19;5074671;28;19946;-93
2023/05/17 10:09:36;;;;;;;;;;;;;;;25.33;38.00;98117.41;5074006;28;19927;-95
2023/05/17 10:12:04;;;;;;;;;;;;;;;25.35;37.08;98114.94;5073979;28;19938;-93
2023/05/17 10:14:31;;;;;;;;;;;;;;;25.82;36.46;98106.84;5075591;28;19928;-93
2023/05/17 10:16:57;;;;;;;;;;;;;;;26.44;35.83;98103.38;5075981;28;19920;-94
2023/05/17 10:19:23;;;;;;;;;;;;;;;26.70;35.37;98099.34;5077735;28;20011;-93
2023/05/17 10:21:50;;;;;;;;;;;;;;;27.03;34.43;98099.91;5077701;28;20020;-93
2023/05/17 10:24:16;;;;;;;;;;;;;;;27.04;34.44;98107.13;5076965;28;19999;-94
2023/05/17 10:26:42;;;;;;;;;;;;;;;27.29;33.18;98104.25;5077175;28;19921;-92
2023/05/17 10:29:09;;;;;;;;;;;;;;;26.74;34.18;98108.47;5077456;28;19916;-93
2023/05/17 10:31:35;;;;;;;;;;;;;;;26.17;34.89;98117.09;5076936;28;20375;-93
2023/05/17 10:34:04;;;;;;;;;;;;;;;25.56;36.75;98111.59;5057874;28;19917;-92
2023/05/17 10:36:30;;;;;;;;;;;;;;;25.80;36.32;98118.56;5064591;28;19927;-93
2023/05/17 10:38:57;;;;;;;;;;;;;;;26.55;35.21;98117.94;5077657;28;20002;-93
2023/05/17 10:41:27;;;;;;;;;;;;;;;26.63;33.85;98129.75;5077346;28;20010;-94
2023/05/17 10:43:54;;;;;;;;;;;;;;;25.81;34.91;98141.84;5067871;28;19947;-92
2023/05/17 10:46:21;;;;;;;;;;;;;;;25.26;37.73;98138.06;5074732;28;20316;-91
2023/05/17 10:48:49;;;;;;;;;;;;;;;24.95;37.42;98141.69;5063504;28;19925;-93
2023/05/17 10:51:20;;;;;;;;;;;;;;;25.06;37.01;98145.81;5062646;28;19916;-93
2023/05/17 10:54:01;;;;;;;;;;;;;;;24.62;37.92;98147.22;5051010;28;20007;-92
2023/05/17 10:56:29;;;;;;;;;;;;;;;24.29;38.74;98153.19;5078210;28;20437;-92
2023/05/17 10:59:13;;;;;;;;;;;;;;;25.26;34.74;98146.50;5065172;28;20293;-88
2023/05/17 11:01:58;;;;;;;;;;;;;;;25.35;35.99;98154.28;5060199;28;19979;-92
2023/05/17 11:04:37;;;;;;;;;;;;;;;25.71;34.94;98148.56;5064079;28;19924;-91
2023/05/17 11:07:20;;;;;;;;;;;;;;;25.63;34.85;98162.00;5064261;28;19943;-91
2023/05/17 11:09:53;;;;;;;;;;;;;;;25.29;35.53;98154.06;5049430;28;19921;-91
2023/05/17 11:12:29;;;;;;;;;;;;;;;25.55;34.68;98155.00;5067091;28;20372;-90
2023/05/17 11:14:56;;;;;;;;;;;;;;;25.55;35.46;98162.66;5072553;28;19921;-91
2023/05/17 11:17:55;;;;;;;;;;;;;;;25.96;34.58;98157.09;5074504;28;20435;-91
2023/05/17 11:20:24;;;;;;;;;;;;;;;26.14;33.71;98167.88;5074533;28;19947;-91
2023/05/17 11:22:57;;;;;;;;;;;;;;;26.39;32.99;98159.47;5073220;28;19916;-92
2023/05/17 11:25:26;;;;;;;;;;;;;;;26.06;33.96;98167.25;5072912;28;19940;-92
2023/05/17 11:27:52;;;;;;;;;;;;;;;26.43;33.39;98165.78;5071259;28;19956;-91
2023/05/17 11:30:21;;;;;;;;;;;;;;;26.57;32.70;98171.78;5075363;28;19912;-91
2023/05/17 11:32:51;;;;;;;;;;;;;;;25.62;34.82;98165.28;5070836;28;19938;-91
2023/05/17 11:35:18;;;;;;;;;;;;;;;25.23;35.18;98172.66;5062606;28;20051;-91
2023/05/17 11:37:44;;;;;;;;;;;;;;;25.76;34.19;98176.13;5056859;28;19936;-93
2023/05/17 11:40:12;;;;;;;;;;;;;;;25.79;34.59;98180.88;5064971;28;20393;-92
2023/05/17 11:42:38;;;;;;;;;;;;;;;25.87;34.01;98179.44;5058315;28;19913;-93
2023/05/17 11:45:05;;;;;;;;;;;;;;;25.09;36.41;98183.44;5070179;28;19920;-94
2023/05/17 11:47:31;;;;;;;;;;;;;;;25.86;33.66;98187.09;5070332;28;19921;-92
2023/05/17 11:50:02;;;;;;;;;;;;;;;25.92;33.44;98182.53;5071827;28;19926;-92
2023/05/17 11:52:28;;;;;;;;;;;;;;;25.59;34.10;98177.41;5075581;28;19916;-90
2023/05/17 11:54:55;;;;;;;;;;;;;;;26.11;33.58;98180.81;5056130;28;19974;-93
2023/05/17 11:57:22;;;;;;;;;;;;;;;26.46;33.37;98182.59;5073996;28;19916;-93
2023/05/17 11:59:48;;;;;;;;;;;;;;;26.37;33.64;98182.44;5074138;28;20007;-93
2023/05/17 12:02:34;;;;;;;;;;;;;;;26.00;33.94;98185.91;5069636;28;19983;-92
2023/05/17 12:05:00;;;;;;;;;;;;;;;25.87;33.85;98185.06;5073867;28;19924;-91
2023/05/17 12:07:26;;;;;;;;;;;;;;;25.39;34.42;98183.88;5074528;28;19924;-89
2023/05/17 12:09:52;;;;;;;;;;;;;;;25.54;34.74;98187.16;5073378;28;19927;-91
2023/05/17 12:12:20;;;;;;;;;;;;;;;25.80;34.02;98182.44;5068279;28;19922;-91
2023/05/17 12:14:47;;;;;;;;;;;;;;;25.85;33.52;98181.91;5074087;28;20022;-92
2023/05/17 12:17:20;;;;;;;;;;;;;;;26.02;33.81;98191.91;5070316;28;20019;-92
2023/05/17 12:19:50;;;;;;;;;;;;;;;25.22;35.13;98185.16;5067935;28;20388;-92
2023/05/17 12:22:16;;;;;;;;;;;;;;;25.81;33.83;98190.44;5067441;28;19917;-91
2023/05/17 12:24:42;;;;;;;;;;;;;;;25.55;34.68;98200.00;5061126;28;19921;-91
2023/05/17 12:27:09;;;;;;;;;;;;;;;25.93;33.28;98191.72;5074137;28;19920;-91
2023/05/17 12:29:35;;;;;;;;;;;;;;;25.20;34.33;98195.25;5071877;28;19920;-91
2023/05/17 12:32:01;;;;;;;;;;;;;;;25.45;34.47;98203.06;5059069;28;19920;-92
2023/05/17 12:34:28;;;;;;;;;;;;;;;25.80;33.81;98197.31;5057206;28;19920;-92
2023/05/17 12:36:54;;;;;;;;;;;;;;;25.83;34.07;98206.88;5066243;28;20023;-93
2023/05/17 12:39:22;;;;;;;;;;;;;;;25.77;34.25;98219.91;5069324;28;20316;-92
2023/05/17 12:41:50;;;;;;;;;;;;;;;25.02;34.92;98222.97;5070009;28;20006;-91
2023/05/17 12:44:16;;;;;;;;;;;;;;;25.40;34.61;98224.84;5081447;28;20322;-93
2023/05/17 12:46:43;;;;;;;;;;;;;;;25.74;33.92;98240.50;5074501;28;20331;-90
2023/05/17 12:49:10;;;;;;;;;;;;;;;25.96;32.61;98242.28;5067291;28;20020;-91